KLCI/LCI METAR and TAF weather

Enter ICAO airport designator
Station Type Date Time Source
KLCI METAR 2020/01/24 02:56 UTC NOAA

KLCI 240256Z AUTO 22005KT 10SM CLR M03/M06 A3032 RMK AO2 SLP275 T10331061 51007 FZRANO


Station Type Date Time Source
KLCI Decoded METAR 2020/01/24 02:56 UTC NOAA

Laconia, Laconia Municipal Airport, NH, United States (KLCI) 43-34N 071-25W
Jan 23, 2020 - 09:56 PM EST / 2020.01.24 0256 UTC
Wind: from the SW (220 degrees) at 6 MPH (5 KT):0
Visibility: 10 mile(s):0
Sky conditions: clear
Temperature: 26.1 F (-3.3 C)
Windchill: 19 F (-7 C):1
Dew Point: 21.0 F (-6.1 C)
Relative Humidity: 80%
Pressure (altimeter): 30.32 in. Hg (1026 hPa)
Pressure tendency: 0.02 inches (0.7 hPa) higher than three hours ago
ob: KLCI 240256Z AUTO 22005KT 10SM CLR M03/M06 A3032 RMK AO2 SLP275 T10331061 51007 FZRANO
cycle: 3

Station Type Date Time Source
KLCI TAF UTC NOAA

Error!

Example: see airport list